• Join FlightAware (Why Join?)
  • Login
  • US Flag 
01:01AM EDT


 

Airport Tracker/Info


-or-


 

Live Flight TrackerFlight Track Log ✈ EJA583 ✈ 16-Jul-2013 ✈ KSDL - KCRQ

Flight Track Log - Related Links

Times and Time Zones

All times are in EDT time to prevent confusion due to time zone crossing. See the EJA583 flight status page for this flight to view local times or setup timezone preferences in your user account.

Time Position Orientation Groundspeed Altitude Reporting Facility
EDT Latitude Longitude Course Direction KTS MPH feet Rate Location/Type
09:26PM 33.6333 -111.9000 320° Northwest 167 192 2,300  Level Phoenix TRACON
09:26PM 33.6500 -111.9167 320° Northwest 201 231 3,400 1,860 Climbing Phoenix TRACON
09:27PM 33.6667 -112.0000 284° West 244 281 5,400 1,800 Climbing Phoenix TRACON
09:28PM 33.7167 -112.0500 320° Northwest 253 291 7,100 2,220 Climbing Phoenix TRACON
09:29PM 33.7333 -112.1333 284° West 275 316 9,900 2,640 Climbing Phoenix TRACON
09:31PM 33.7350 -112.2644 271° West 287 330 13,400 2,520 Climbing Albuquerque Center
09:32PM 33.7256 -112.3594 263° West 293 337 16,000 2,160 Climbing Albuquerque Center
09:33PM 33.6997 -112.4567 252° West 306 352 17,900 1,860 Climbing Albuquerque Center
09:34PM 33.6678 -112.5506 248° West 320 368 19,800 2,100 Climbing Albuquerque Center
09:35PM 33.6147 -112.6283 231° Southwest 312 359 22,200 2,160 Climbing Albuquerque Center
09:36PM 33.5994 -112.7225 259° West 309 356 24,200 1,500 Climbing Albuquerque Center
09:37PM 33.6078 -112.8228 276° West 304 350 25,300 780 Climbing Albuquerque Center
09:38PM 33.6189 -112.9389 277° West 335 386 25,900 300 Climbing Albuquerque Center
09:39PM 33.6325 -113.0931 276° West 377 434 26,000  Climbing Albuquerque Center
09:40PM 33.6433 -113.2056 277° West 397 457 26,000  Level Albuquerque Center
09:41PM 33.6569 -113.3686 276° West 407 468 26,000  Level Albuquerque Center
09:42PM 33.6692 -113.5078 276° West 416 479 26,000  Level Albuquerque Center
09:43PM 33.6817 -113.6461 276° West 417 480 26,000  Level Albuquerque Center
09:44PM 33.6939 -113.7844 276° West 418 481 26,000  Level Albuquerque Center
09:45PM 33.7047 -113.9233 275° West 418 481 26,000  Level Albuquerque Center
09:46PM 33.7169 -114.0619 276° West 418 481 26,000  Level Albuquerque Center
09:47PM 33.7256 -114.2028 274° West 421 484 26,000  Level Albuquerque Center
09:48PM 33.7181 -114.3611 267° West 419 482 26,000 -300 Level Albuquerque Center
09:49PM 33.7119 -114.5019 267° West 423 487 25,400 -660 Descending Albuquerque Center
09:51PM 33.7053 -114.6842 268° West 438 504 24,500 -900 Descending Los Angeles Center
09:52PM 33.6981 -114.8289 267° West 437 503 23,400 -780 Descending Los Angeles Center
09:53PM 33.6917 -114.9714 267° West 431 496 23,000 -240 Descending Los Angeles Center
09:54PM 33.6850 -115.1094 267° West 420 483 23,000 -60 Level Los Angeles Center
09:55PM 33.6767 -115.2725 267° West 411 473 22,900 -300 Descending Los Angeles Center
09:56PM 33.6700 -115.4100 267° West 415 478 22,500 -780 Descending Los Angeles Center
09:57PM 33.6625 -115.5497 266° West 420 483 21,300 -1,140 Descending Los Angeles Center
09:58PM 33.6561 -115.6819 267° West 402 463 20,200 -1,140 Descending Los Angeles Center
09:59PM 33.6481 -115.8153 266° West 403 464 19,000 -1,140 Descending Los Angeles Center
10:00PM 33.6408 -115.9469 266° West 400 460 17,900 -1,080 Descending Los Angeles Center
10:01PM 33.6317 -116.1008 266° West 388 447 16,600 -840 Descending Los Angeles Center
10:02PM 33.5903 -116.2358 250° West 371 427 16,000 -780 Descending Los Angeles Center
10:03PM 33.5364 -116.3431 239° Southwest 374 430 15,000 -1,020 Descending Los Angeles Center
10:04PM 33.4833 -116.4497 239° Southwest 376 433 14,000 -1,020 Descending Los Angeles Center
10:05PM 33.4319 -116.5503 239° Southwest 363 418 13,000 -540 Descending Los Angeles Center
10:06PM 33.3803 -116.6508 238° Southwest 358 412 13,000 -480 Level Los Angeles Center
10:07PM 33.3197 -116.7728 239° Southwest 359 413 12,100 -1,440 Descending Los Angeles Center
10:08PM 33.2783 -116.8536 239° Southwest 305 351 10,100 -2,100 Descending Los Angeles Center
10:09PM 33.2500 -116.9000 234° Southwest 265 305 8,900 -2,820 Descending Southern California TRACON
10:10PM 33.2167 -116.9667 239° Southwest 268 308 5,900 -1,980 Descending Southern California TRACON
10:11PM 33.1833 -117.0333 239° Southwest 216 249 5,000 -1,200 Descending Southern California TRACON
10:12PM 33.1667 -117.0833 248° West 195 224 3,600 -1,200 Descending Southern California TRACON
10:13PM 33.1500 -117.1333 248° West 134 154 2,600 -900 Descending Southern California TRACON
10:14PM 33.1500 -117.1833 270° West 125 144 1,900 -720 Descending Southern California TRACON
10:15PM 33.1333 -117.2167 239° Southwest 140 161 1,200 -660 Descending Southern California TRACON
10:16PM 33.1333 -117.2667 270° West 121 139 600 -600 Descending Southern California TRACON
10:18PM 33.1167 -117.2667 90° East  Level FlightAware Approximate